| time (UTC) | temp F | wind direction | speed knots | gust knots | rain 1hr in | rain 24hr in | rain mn in | humidity % | barometer mb |
| 20260505124523 | 46 | 88 | 0.0 | 0.0 | 0.00 | 0.00 | 0.00 | 81 | 1007.9 |
| 20260505123021 | 46 | 88 | 0.0 | 0.0 | 0.00 | 0.00 | 0.00 | 81 | 1007.7 |
| 20260505121516 | 46 | 88 | 0.0 | 0.0 | 0.00 | 0.00 | 0.00 | 81 | 1007.4 |
| 20260505120014 | 47 | 88 | 0.0 | 0.0 | 0.00 | 0.00 | 0.00 | 81 | 1007.2 |
| 20260505114514 | 46 | 88 | 0.0 | 0.0 | 0.00 | 0.00 | 0.00 | 81 | 1007.2 |
| 20260505113016 | 47 | 88 | 0.0 | 0.0 | 0.00 | 0.00 | 0.00 | 80 | 1007.2 |
| 20260505111507 | 47 | 88 | 0.0 | 0.0 | 0.00 | 0.00 | 0.00 | 79 | 1007.1 |
| 20260505101556 | 48 | 88 | 0.0 | 0.9 | 0.00 | 0.00 | 0.00 | 77 | 1006.5 |
| 20260505100047 | 48 | 79 | 0.0 | 0.0 | 0.00 | 0.00 | 0.00 | 77 | 1006.4 |
| 20260505094544 | 49 | 79 | 0.0 | 0.9 | 0.00 | 0.00 | 0.00 | 77 | 1006.3 |
| 20260505093042 | 49 | 79 | 0.0 | 0.9 | 0.00 | 0.00 | 0.00 | 76 | 1006.1 |
| 20260505091540 | 49 | 75 | 0.0 | 0.0 | 0.00 | 0.00 | 0.00 | 77 | 1006.0 |
| 20260505090048 | 49 | 75 | 0.0 | 0.9 | 0.00 | 0.00 | 0.00 | 76 | 1006.0 |
| 20260505084528 | 49 | 75 | 0.0 | 0.9 | 0.00 | 0.00 | 0.00 | 75 | 1005.9 |
| 20260505083027 | 50 | 75 | 0.0 | 0.9 | 0.00 | 0.00 | 0.00 | 74 | 1005.7 |
| 20260505081528 | 50 | 75 | 0.0 | 0.9 | 0.00 | 0.00 | 0.00 | 72 | 1005.6 |
| 20260505080016 | 51 | 75 | 0.0 | 0.0 | 0.00 | 0.00 | 0.00 | 72 | 1005.5 |
| 20260505074514 | 51 | 75 | 0.0 | 0.9 | 0.00 | 0.00 | 0.00 | 69 | 1005.4 |
| 20260505073010 | 51 | 76 | 0.0 | 0.0 | 0.00 | 0.00 | 0.00 | 71 | 1005.6 |
| 20260505071504 | 52 | 75 | 0.0 | 0.9 | 0.00 | 0.00 | 0.00 | 67 | 1005.4 |
| 20260505070100 | 52 | 75 | 0.0 | 0.9 | 0.00 | 0.00 | 0.00 | 69 | 1005.1 |
| 20260505064558 | 53 | 76 | 0.0 | 0.0 | 0.00 | 0.00 | 0.00 | 67 | 1005.0 |
| 20260505063054 | 53 | 76 | 0.0 | 0.9 | 0.00 | 0.00 | 0.00 | 66 | 1005.0 |
| 20260505061551 | 53 | 76 | 0.0 | 0.9 | 0.00 | 0.00 | 0.00 | 68 | 1004.9 |
| 20260505060046 | 54 | 76 | 0.0 | 0.9 | 0.00 | 0.00 | 0.00 | 61 | 1004.9 |
| 20260505054546 | 54 | 76 | 0.0 | 0.9 | 0.00 | 0.00 | 0.00 | 66 | 1004.9 |
| 20260505053048 | 54 | 76 | 0.0 | 0.9 | 0.00 | 0.00 | 0.00 | 64 | 1004.7 |
| 20260505051543 | 54 | 75 | 0.0 | 0.9 | 0.00 | 0.00 | 0.00 | 61 | 1004.8 |
| 20260505041541 | 60 | 80 | 0.0 | 1.7 | 0.00 | 0.00 | 0.00 | 52 | 1004.7 |
| 20260505040041 | 60 | 98 | 0.0 | 0.0 | 0.00 | 0.00 | 0.00 | 50 | 1004.6 |
| 20260505034540 | 61 | 97 | 0.0 | 0.9 | 0.00 | 0.00 | 0.00 | 47 | 1004.5 |
| 20260505033102 | 64 | 98 | 0.0 | 0.9 | 0.00 | 0.00 | 0.00 | 42 | 1004.0 |
| 20260505031540 | 66 | 98 | 0.0 | 0.9 | 0.00 | 0.00 | 0.00 | 36 | 1003.7 |
| 20260505030039 | 68 | 112 | 0.0 | 4.3 | 0.00 | 0.00 | 0.00 | 32 | 1003.6 |
| 20260505024538 | 69 | 58 | 0.0 | 2.6 | 0.00 | 0.00 | 0.00 | 31 | 1003.4 |
| 20260505023047 | 70 | 70 | 0.9 | 5.2 | 0.00 | 0.00 | 0.00 | 30 | 1003.3 |
| 20260505021538 | 70 | 98 | 0.0 | 4.3 | 0.00 | 0.00 | 0.00 | 30 | 1003.3 |
| 20260505020043 | 70 | 44 | 0.9 | 5.2 | 0.00 | 0.00 | 0.00 | 31 | 1003.4 |
| 20260505014536 | 71 | 108 | 1.7 | 5.2 | 0.00 | 0.00 | 0.00 | 29 | 1003.5 |
| 20260505013034 | 72 | 36 | 0.9 | 3.5 | 0.00 | 0.00 | 0.00 | 32 | 1003.5 |
| 20260505011533 | 72 | 46 | 0.9 | 8.7 | 0.00 | 0.00 | 0.00 | 31 | 1003.7 |
| 20260505010032 | 72 | 58 | 0.9 | 2.6 | 0.00 | 0.00 | 0.00 | 30 | 1003.7 |
| 20260505004543 | 72 | 51 | 0.9 | 4.3 | 0.00 | 0.00 | 0.00 | 29 | 1003.9 |
| 20260505003030 | 73 | 49 | 0.0 | 3.5 | 0.00 | 0.00 | 0.00 | 30 | 1003.9 |
| 20260505001529 | 73 | 83 | 0.0 | 4.3 | 0.00 | 0.00 | 0.00 | 32 | 1004.0 |
| 20260505000026 | 73 | 32 | 0.9 | 3.5 | 0.00 | 0.00 | 0.00 | 34 | 1004.1 |
| 20260504234530 | 73 | 51 | 0.9 | 6.1 | 0.00 | 0.00 | 0.00 | 35 | 1004.1 |
| 20260504233024 | 73 | 60 | 0.0 | 7.0 | 0.00 | 0.00 | 0.00 | 35 | 1004.2 |
| 20260504231537 | 73 | 53 | 0.0 | 4.3 | 0.00 | 0.00 | 0.00 | 36 | 1004.2 |
| 20260504230021 | 73 | 58 | 0.0 | 4.3 | 0.00 | 0.00 | 0.00 | 37 | 1004.4 |
| 20260504224518 | 73 | 67 | 0.0 | 2.6 | 0.00 | 0.00 | 0.00 | 38 | 1004.6 |
| 20260504223016 | 73 | 100 | 0.0 | 8.7 | 0.00 | 0.00 | 0.00 | 39 | 1004.7 |
| 20260504221513 | 72 | 87 | 0.0 | 2.6 | 0.00 | 0.00 | 0.00 | 39 | 1004.9 |
| 20260504220013 | 72 | 305 | 0.0 | 3.5 | 0.00 | 0.00 | 0.00 | 38 | 1005.2 |
| 20260504214515 | 72 | 133 | 0.0 | 2.6 | 0.00 | 0.00 | 0.00 | 41 | 1005.4 |
| 20260504213008 | 72 | 107 | 0.9 | 5.2 | 0.00 | 0.00 | 0.00 | 42 | 1005.6 |
| 20260504211505 | 71 | 127 | 0.0 | 3.5 | 0.00 | 0.00 | 0.00 | 42 | 1005.9 |
| 20260504210007 | 71 | 86 | 0.0 | 4.3 | 0.00 | 0.00 | 0.00 | 42 | 1006.1 |
| 20260504204639 | 71 | 127 | 0.9 | 4.3 | 0.00 | 0.00 | 0.00 | 45 | 1006.2 |
| 20260504203058 | 70 | 125 | 1.7 | 6.1 | 0.00 | 0.00 | 0.00 | 45 | 1006.4 |
| 20260504201559 | 70 | 65 | 0.0 | 4.3 | 0.00 | 0.00 | 0.00 | 46 | 1006.5 |
| 20260504200058 | 70 | 119 | 0.9 | 5.2 | 0.00 | 0.00 | 0.00 | 47 | 1006.6 |
| 20260504194556 | 69 | 116 | 0.0 | 2.6 | 0.00 | 0.00 | 0.00 | 47 | 1006.8 |
| 20260504193051 | 69 | 115 | 0.9 | 5.2 | 0.00 | 0.00 | 0.00 | 50 | 1007.1 |
| 20260504191549 | 69 | 120 | 0.9 | 3.5 | 0.00 | 0.00 | 0.00 | 50 | 1007.5 |
| 20260504190057 | 69 | 51 | 0.0 | 3.5 | 0.00 | 0.00 | 0.00 | 51 | 1007.5 |
| 20260504184600 | 68 | 75 | 0.9 | 5.2 | 0.00 | 0.00 | 0.00 | 48 | 1007.5 |
| 20260504183053 | 68 | 186 | 0.9 | 4.3 | 0.00 | 0.00 | 0.00 | 49 | 1007.6 |
| 20260504181541 | 68 | 6 | 2.6 | 7.0 | 0.00 | 0.00 | 0.00 | 48 | 1007.7 |
| 20260504180037 | 67 | 235 | 1.7 | 5.2 | 0.00 | 0.00 | 0.00 | 50 | 1007.8 |
| 20260504174533 | 66 | 234 | 2.6 | 5.2 | 0.00 | 0.00 | 0.00 | 49 | 1007.9 |
| 20260504173030 | 66 | 182 | 1.7 | 4.3 | 0.00 | 0.00 | 0.00 | 49 | 1008.2 |
| 20260504171538 | 65 | 176 | 0.0 | 5.2 | 0.00 | 0.00 | 0.00 | 47 | 1008.3 |